Time;durP1;ratioP1;P1;durP2;ratioP2;P2;SDS_P1;SDS_P2;PMS_P1;PMS_P2;Temp;Humidity;BMP_temperature;BMP_pressure;BME280_temperature;BME280_humidity;BME280_pressure;Samples;Min_cycle;Max_cycle;Signal;HPM_P1;HPM_P2
2022/07/05 02:48:27;;;;;;;3.20;0.40;;;17.70;99.90;;;;;;4895528;28;83668;-70
2022/07/05 02:50:54;;;;;;;2.63;0.60;;;17.60;99.90;;;;;;4900090;28;81932;-72
2022/07/05 02:53:20;;;;;;;5.15;0.50;;;17.70;99.90;;;;;;4898652;28;81849;-71
2022/07/05 02:55:46;;;;;;;4.65;0.70;;;17.60;99.90;;;;;;4898813;28;81490;-74
2022/07/05 02:58:11;;;;;;;4.43;0.50;;;17.60;99.90;;;;;;4899710;28;81991;-72
2022/07/05 03:00:37;;;;;;;3.72;0.50;;;17.60;99.90;;;;;;4900330;28;81556;-71
2022/07/05 03:03:03;;;;;;;2.15;0.45;;;17.60;99.90;;;;;;4899750;28;82875;-72
2022/07/05 03:05:29;;;;;;;2.55;0.50;;;17.70;99.90;;;;;;4897615;28;81981;-72
2022/07/05 03:07:54;;;;;;;4.82;0.40;;;17.70;99.90;;;;;;4899299;28;81915;-72
2022/07/05 03:10:20;;;;;;;7.13;0.65;;;17.70;99.90;;;;;;4899630;28;82157;-73
2022/07/05 03:12:46;;;;;;;3.20;0.80;;;17.70;99.90;;;;;;4900805;28;81880;-72
2022/07/05 03:15:11;;;;;;;7.30;0.80;;;17.60;99.90;;;;;;4900561;28;82400;-72
2022/07/05 03:17:37;;;;;;;5.57;0.50;;;17.60;99.90;;;;;;4899276;28;82942;-73
2022/07/05 03:20:03;;;;;;;5.82;0.70;;;17.60;99.90;;;;;;4901291;28;82391;-72
2022/07/05 03:22:29;;;;;;;4.57;0.80;;;17.70;99.90;;;;;;4899719;28;81932;-74
2022/07/05 03:24:54;;;;;;;3.47;0.70;;;17.70;99.90;;;;;;4899546;28;82262;-74
2022/07/05 03:27:20;;;;;;;1.60;0.50;;;17.60;99.90;;;;;;4899996;28;82562;-73
2022/07/05 03:29:46;;;;;;;2.03;0.60;;;17.70;99.90;;;;;;4899793;28;81832;-72
2022/07/05 03:32:11;;;;;;;3.50;0.40;;;17.90;99.90;;;;;;4900138;28;81868;-75
2022/07/05 03:34:38;;;;;;;2.65;0.68;;;18.00;99.90;;;;;;4901967;28;81944;-74
2022/07/05 03:37:04;;;;;;;3.30;0.80;;;18.00;99.90;;;;;;4902565;28;82645;-75
2022/07/05 03:39:29;;;;;;;3.22;0.50;;;18.00;99.90;;;;;;4900758;28;82094;-77
2022/07/05 03:41:55;;;;;;;7.60;0.63;;;17.90;99.90;;;;;;4901979;28;81813;-75
2022/07/05 03:44:21;;;;;;;3.35;0.70;;;18.00;99.90;;;;;;4901553;28;81824;-73
2022/07/05 03:46:46;;;;;;;4.45;0.63;;;18.00;99.90;;;;;;4902253;28;82111;-74
2022/07/05 03:49:12;;;;;;;3.03;0.93;;;18.00;99.90;;;;;;4900980;28;82313;-73
2022/07/05 03:51:38;;;;;;;3.08;0.60;;;17.80;99.90;;;;;;4901033;28;82396;-75
2022/07/05 03:54:04;;;;;;;5.07;0.47;;;17.90;99.90;;;;;;4904950;28;82096;-75
2022/07/05 03:56:30;;;;;;;3.22;0.60;;;18.00;99.90;;;;;;4902944;28;81869;-74
2022/07/05 03:58:56;;;;;;;2.45;0.50;;;18.00;99.90;;;;;;4902632;28;82535;-74
2022/07/05 04:01:22;;;;;;;3.33;0.45;;;18.10;99.90;;;;;;4901296;28;81910;-76
2022/07/05 04:03:47;;;;;;;3.15;0.40;;;18.20;99.90;;;;;;4903463;28;82361;-73
2022/07/05 04:06:13;;;;;;;2.83;0.52;;;18.20;99.90;;;;;;4900580;28;81902;-72
2022/07/05 04:08:39;;;;;;;3.33;0.40;;;18.20;99.90;;;;;;4903349;28;82179;-74
2022/07/05 04:11:05;;;;;;;3.13;0.50;;;18.30;99.90;;;;;;4903571;28;81706;-73
2022/07/05 04:13:31;;;;;;;3.63;0.50;;;18.30;99.90;;;;;;4904357;28;81643;-75
2022/07/05 04:15:57;;;;;;;2.33;0.38;;;18.30;99.90;;;;;;4899725;28;83534;-73
2022/07/05 04:18:23;;;;;;;1.80;0.40;;;18.40;99.90;;;;;;4896623;28;83094;-73
2022/07/05 04:20:48;;;;;;;2.20;0.22;;;18.30;99.90;;;;;;4900949;28;82125;-72
2022/07/05 04:23:14;;;;;;;2.22;0.30;;;18.30;99.90;;;;;;4903304;28;82497;-72
2022/07/05 04:25:40;;;;;;;1.13;0.30;;;18.30;99.90;;;;;;4903797;28;83079;-72
2022/07/05 04:28:06;;;;;;;4.80;0.45;;;18.30;99.90;;;;;;4903564;28;82400;-74
2022/07/05 04:30:32;;;;;;;3.10;0.60;;;18.30;99.90;;;;;;4903840;28;81913;-71
2022/07/05 04:32:57;;;;;;;1.35;0.30;;;18.30;99.90;;;;;;4902369;28;81583;-72
2022/07/05 04:35:23;;;;;;;4.40;0.32;;;18.20;99.90;;;;;;4898015;28;82501;-76
2022/07/05 04:37:49;;;;;;;3.83;0.60;;;18.20;99.90;;;;;;4902898;28;82276;-72
2022/07/05 04:40:15;;;;;;;1.95;0.40;;;18.20;99.90;;;;;;4902749;28;83104;-73
2022/07/05 04:42:42;;;;;;;2.08;0.43;;;18.30;99.90;;;;;;4896596;28;82859;-73
2022/07/05 04:45:08;;;;;;;1.98;0.50;;;18.30;99.90;;;;;;4900097;28;82212;-72
2022/07/05 04:47:36;;;;;;;2.05;0.40;;;18.30;99.90;;;;;;4902144;28;82111;-74
2022/07/05 04:50:04;;;;;;;4.28;0.50;;;18.30;99.90;;;;;;4902992;28;82098;-74
2022/07/05 04:52:30;;;;;;;2.10;0.50;;;18.40;99.90;;;;;;4896390;28;83513;-74
2022/07/05 04:54:56;;;;;;;3.00;0.80;;;18.40;99.90;;;;;;4890861;28;83017;-74
2022/07/05 04:57:21;;;;;;;2.10;0.30;;;18.40;99.90;;;;;;4902135;28;81923;-71
2022/07/05 04:59:47;;;;;;;2.65;0.60;;;18.40;99.90;;;;;;4900830;28;81777;-72
2022/07/05 05:02:13;;;;;;;1.52;0.45;;;18.30;99.90;;;;;;4894245;28;82064;-72
2022/07/05 05:04:38;;;;;;;3.88;0.43;;;18.30;99.90;;;;;;4901020;28;83259;-72
2022/07/05 05:07:04;;;;;;;3.30;0.50;;;18.30;99.90;;;;;;4902558;28;83681;-72
2022/07/05 05:09:30;;;;;;;2.92;0.60;;;18.30;99.90;;;;;;4902131;28;82004;-72
2022/07/05 05:11:56;;;;;;;2.92;0.70;;;18.30;99.90;;;;;;4898452;28;82220;-74
2022/07/05 05:14:22;;;;;;;1.85;0.40;;;18.40;99.90;;;;;;4902041;28;83642;-70
2022/07/05 05:16:47;;;;;;;3.33;0.40;;;18.40;99.90;;;;;;4901998;28;82025;-75
2022/07/05 05:19:13;;;;;;;2.65;0.40;;;18.40;99.90;;;;;;4901691;28;82134;-73
2022/07/05 05:21:39;;;;;;;3.33;0.40;;;18.40;99.90;;;;;;4889726;28;81688;-73
2022/07/05 05:24:05;;;;;;;1.70;0.38;;;18.40;99.90;;;;;;4900460;28;82349;-73
2022/07/05 05:26:31;;;;;;;1.40;0.30;;;18.50;99.90;;;;;;4902779;28;82219;-74
2022/07/05 05:28:57;;;;;;;1.73;0.40;;;18.50;99.90;;;;;;4904488;28;82825;-72
2022/07/05 05:31:22;;;;;;;1.85;0.52;;;18.30;99.90;;;;;;4905702;28;81852;-72
2022/07/05 05:33:48;;;;;;;2.13;0.55;;;18.30;99.90;;;;;;4903334;28;82116;-74
2022/07/05 05:36:14;;;;;;;5.80;1.17;;;18.40;99.90;;;;;;4898652;28;82530;-72
2022/07/05 05:38:40;;;;;;;2.10;0.57;;;18.40;99.90;;;;;;4902886;28;81876;-71
2022/07/05 05:41:05;;;;;;;3.55;0.60;;;18.30;99.90;;;;;;4903212;28;81973;-71
2022/07/05 05:43:31;;;;;;;2.33;0.50;;;18.20;99.90;;;;;;4902304;28;82032;-73
2022/07/05 05:45:57;;;;;;;8.05;1.00;;;18.40;99.90;;;;;;4898342;28;82792;-73
2022/07/05 05:48:22;;;;;;;2.45;0.60;;;18.40;99.90;;;;;;4902077;28;82097;-72
2022/07/05 05:50:49;;;;;;;2.60;0.80;;;18.40;99.90;;;;;;4903005;28;82275;-73
2022/07/05 05:53:14;;;;;;;3.53;0.75;;;18.20;99.90;;;;;;4902639;28;83058;-73
2022/07/05 05:55:43;;;;;;;2.63;0.73;;;18.00;99.90;;;;;;4898764;28;83263;-73
2022/07/05 05:58:15;;;;;;;4.97;0.70;;;18.00;99.90;;;;;;4900727;28;81911;-73
2022/07/05 06:00:47;;;;;;;1.98;0.68;;;18.10;99.90;;;;;;4893566;28;83015;-72
2022/07/05 06:03:17;;;;;;;4.53;0.60;;;18.20;99.90;;;;;;4900986;28;82802;-73
2022/07/05 06:05:42;;;;;;;3.58;1.00;;;18.30;99.90;;;;;;4897978;28;82241;-74
2022/07/05 06:08:08;;;;;;;2.53;0.82;;;18.40;99.90;;;;;;4899734;28;81919;-75
2022/07/05 06:10:38;;;;;;;3.33;0.73;;;18.40;99.90;;;;;;4901231;28;81699;-73
2022/07/05 06:13:06;;;;;;;4.00;0.85;;;18.50;99.90;;;;;;4893864;28;82538;-72
2022/07/05 06:15:33;;;;;;;2.90;0.60;;;18.60;99.90;;;;;;4899381;28;82915;-71
2022/07/05 06:17:59;;;;;;;2.75;0.80;;;18.70;99.90;;;;;;4900549;28;83131;-73
2022/07/05 06:20:31;;;;;;;5.05;0.70;;;18.70;99.90;;;;;;4895303;28;81607;-74
2022/07/05 06:22:57;;;;;;;4.43;0.55;;;18.70;99.90;;;;;;4900312;28;83130;-72
2022/07/05 06:25:23;;;;;;;4.57;1.15;;;18.50;99.90;;;;;;4900713;28;82313;-71
2022/07/05 06:27:52;;;;;;;3.90;0.80;;;18.40;99.90;;;;;;4901099;28;81963;-73
2022/07/05 06:30:19;;;;;;;2.95;0.80;;;18.30;99.90;;;;;;4900557;28;81906;-72
2022/07/05 06:32:46;;;;;;;3.55;0.70;;;18.20;99.90;;;;;;4897995;28;82062;-75
2022/07/05 06:35:13;;;;;;;3.50;1.25;;;18.20;99.90;;;;;;4896766;28;81514;-71
2022/07/05 06:37:43;;;;;;;11.63;1.13;;;18.40;99.90;;;;;;4900940;28;81996;-71
2022/07/05 06:40:11;;;;;;;3.92;1.48;;;18.50;99.90;;;;;;4899976;28;82802;-72
2022/07/05 06:42:37;;;;;;;6.18;0.98;;;18.60;99.90;;;;;;4899884;28;83347;-73
2022/07/05 06:45:03;;;;;;;3.70;0.85;;;18.90;99.90;;;;;;4896728;28;83157;-72
2022/07/05 06:47:28;;;;;;;4.03;0.63;;;19.20;99.90;;;;;;4892420;28;82478;-71
2022/07/05 06:49:57;;;;;;;4.63;0.85;;;19.30;99.90;;;;;;4896118;28;81775;-74
2022/07/05 06:52:22;;;;;;;3.70;1.02;;;19.40;99.90;;;;;;4896848;28;82274;-72
2022/07/05 06:54:48;;;;;;;3.88;0.80;;;19.60;99.90;;;;;;4899717;28;82124;-74
2022/07/05 06:57:13;;;;;;;2.70;0.70;;;20.50;99.90;;;;;;4893783;28;82010;-76
2022/07/05 06:59:39;;;;;;;3.35;0.93;;;23.10;99.90;;;;;;4897557;28;81955;-72
2022/07/05 07:02:05;;;;;;;6.45;0.90;;;23.50;97.40;;;;;;4897629;28;83186;-73
2022/07/05 07:04:30;;;;;;;6.05;1.02;;;25.80;93.80;;;;;;4897954;28;82917;-73
2022/07/05 07:06:56;;;;;;;3.97;0.80;;;28.20;82.90;;;;;;4894096;28;82904;-72
2022/07/05 07:09:22;;;;;;;3.13;0.70;;;28.60;72.30;;;;;;4891132;28;82228;-73
2022/07/05 07:11:48;;;;;;;3.67;0.95;;;27.50;77.10;;;;;;4898794;28;82075;-74
2022/07/05 07:14:16;;;;;;;1.95;0.85;;;28.90;74.70;;;;;;4900590;28;81953;-73
2022/07/05 07:16:41;;;;;;;3.60;1.38;;;31.40;65.30;;;;;;4900011;28;82492;-75
2022/07/05 07:19:07;;;;;;;2.33;0.90;;;32.40;62.50;;;;;;4890563;28;82111;-73
2022/07/05 07:21:33;;;;;;;3.72;1.13;;;34.30;59.70;;;;;;4893161;28;82358;-74
2022/07/05 07:23:59;;;;;;;3.35;1.10;;;35.00;54.30;;;;;;4888327;28;81868;-73
2022/07/05 07:26:24;;;;;;;3.15;1.02;;;34.70;53.50;;;;;;4895173;28;81978;-72
2022/07/05 07:28:50;;;;;;;4.78;1.15;;;34.10;57.00;;;;;;4894420;28;82060;-74
2022/07/05 07:31:16;;;;;;;3.70;1.65;;;35.00;51.80;;;;;;4895752;28;83183;-71
2022/07/05 07:33:41;;;;;;;2.95;1.42;;;33.10;53.90;;;;;;4901800;28;82078;-73
2022/07/05 07:36:07;;;;;;;5.78;1.40;;;31.80;59.20;;;;;;4898820;28;82348;-74
2022/07/05 07:38:33;;;;;;;2.33;1.23;;;33.30;57.60;;;;;;4899547;28;82165;-72
2022/07/05 07:41:00;;;;;;;2.40;1.08;;;36.30;52.30;;;;;;4899088;28;82051;-73
2022/07/05 07:43:26;;;;;;;2.60;1.63;;;37.90;47.20;;;;;;4903215;28;82565;-72
2022/07/05 07:45:52;;;;;;;2.17;1.20;;;39.00;45.20;;;;;;4898395;28;81573;-72
2022/07/05 07:48:18;;;;;;;3.30;1.58;;;39.80;45.10;;;;;;4899037;28;81587;-70
2022/07/05 07:50:44;;;;;;;2.90;1.63;;;39.60;43.60;;;;;;4900165;28;82581;-76
2022/07/05 07:53:10;;;;;;;4.10;1.85;;;37.40;46.30;;;;;;4902363;28;81935;-71
2022/07/05 07:55:35;;;;;;;3.83;1.40;;;36.10;47.10;;;;;;4896130;28;83115;-72
2022/07/05 07:58:01;;;;;;;3.25;1.50;;;35.00;50.10;;;;;;4901229;28;81944;-72
2022/07/05 08:00:28;;;;;;;3.53;1.13;;;35.20;50.60;;;;;;4902620;28;82779;-71
2022/07/05 08:02:53;;;;;;;2.90;1.42;;;35.80;47.20;;;;;;4899064;28;81921;-71
2022/07/05 08:05:19;;;;;;;1.67;1.00;;;34.30;50.10;;;;;;4901069;28;81859;-70
2022/07/05 08:07:44;;;;;;;2.97;1.25;;;34.00;51.00;;;;;;4902047;28;81928;-72
2022/07/05 08:10:10;;;;;;;2.85;1.52;;;34.90;51.60;;;;;;4903308;28;82036;-74
2022/07/05 08:12:36;;;;;;;2.78;1.40;;;37.40;46.80;;;;;;4902808;28;81569;-74
2022/07/05 08:15:02;;;;;;;3.08;1.40;;;39.10;45.50;;;;;;4901381;28;81993;-75
2022/07/05 08:17:28;;;;;;;2.42;1.63;;;39.60;44.20;;;;;;4903230;28;81875;-74
2022/07/05 08:22:38;;;;;;;3.22;2.13;;;41.00;42.70;;;;;;4897226;28;81993;-72
2022/07/05 08:25:04;;;;;;;6.05;1.92;;;42.40;39.50;;;;;;4895276;28;81873;-72
2022/07/05 08:27:30;;;;;;;3.50;1.75;;;40.70;40.50;;;;;;4903041;28;82298;-70
2022/07/05 08:29:55;;;;;;;2.30;2.08;;;39.60;43.60;;;;;;4899278;28;82001;-72
2022/07/05 08:32:21;;;;;;;2.97;2.20;;;40.70;42.20;;;;;;4899910;28;81815;-72
2022/07/05 08:34:47;;;;;;;2.85;2.10;;;41.70;41.10;;;;;;4899948;28;81826;-72
2022/07/05 08:37:13;;;;;;;3.83;2.40;;;42.20;41.30;;;;;;4895702;28;83425;-74
2022/07/05 08:39:38;;;;;;;3.45;2.42;;;44.10;39.00;;;;;;4899426;28;82255;-72
2022/07/05 08:42:09;;;;;;;2.40;1.90;;;43.20;39.00;;;;;;4900824;28;82048;-70
2022/07/05 08:44:38;;;;;;;3.60;2.63;;;41.20;40.90;;;;;;4898889;28;82893;-72
2022/07/05 08:47:10;;;;;;;3.08;1.70;;;39.70;40.50;;;;;;4898631;28;82046;-75
2022/07/05 08:49:38;;;;;;;3.95;1.73;;;37.50;43.90;;;;;;4902051;28;82597;-73
2022/07/05 08:52:04;;;;;;;2.70;1.75;;;37.20;46.30;;;;;;4899154;28;82023;-73
2022/07/05 08:54:30;;;;;;;3.20;1.75;;;37.50;45.90;;;;;;4901294;28;82143;-76
2022/07/05 08:56:56;;;;;;;2.67;1.85;;;37.20;45.70;;;;;;4894995;28;82006;-75
2022/07/05 08:59:21;;;;;;;2.55;1.75;;;36.90;45.90;;;;;;4901166;28;82092;-72
2022/07/05 09:01:49;;;;;;;2.70;2.17;;;37.70;46.70;;;;;;4899098;28;82156;-72
2022/07/05 09:04:16;;;;;;;3.85;2.03;;;39.60;44.20;;;;;;4899371;28;81762;-72
2022/07/05 09:06:46;;;;;;;4.05;1.77;;;41.00;42.20;;;;;;4894249;28;82692;-71
2022/07/05 09:09:13;;;;;;;2.60;1.55;;;42.30;39.60;;;;;;4899971;28;82873;-73
2022/07/05 09:11:40;;;;;;;5.65;3.15;;;42.70;39.10;;;;;;4900966;28;82857;-74
2022/07/05 09:14:18;;;;;;;4.30;2.58;;;40.40;40.80;;;;;;4897007;28;81898;-71
2022/07/05 09:16:44;;;;;;;4.10;2.55;;;41.40;39.90;;;;;;4887031;28;81965;-72
2022/07/05 09:19:09;;;;;;;3.03;2.63;;;43.40;38.80;;;;;;4899114;28;82955;-72
2022/07/05 09:21:35;;;;;;;4.78;2.50;;;45.30;37.60;;;;;;4890395;28;81804;-72
2022/07/05 09:24:08;;;;;;;5.60;2.58;;;45.40;36.80;;;;;;4901723;28;82007;-71
2022/07/05 09:26:35;;;;;;;3.53;2.92;;;46.40;37.00;;;;;;4901782;28;83540;-72
2022/07/05 09:29:03;;;;;;;4.10;2.70;;;46.80;36.10;;;;;;4895671;28;82595;-75
2022/07/05 09:31:37;;;;;;;5.38;3.65;;;47.10;35.50;;;;;;4900395;28;81952;-76
2022/07/05 09:34:21;;;;;;;4.75;4.30;;;47.80;34.90;;;;;;4900852;28;83006;-73
2022/07/05 09:37:02;;;;;;;4.30;3.90;;;48.20;34.50;;;;;;4894664;28;82355;-73
2022/07/05 09:39:30;;;;;;;4.57;3.55;;;47.40;33.90;;;;;;4895417;28;81921;-74
2022/07/05 09:42:08;;;;;;;4.40;3.75;;;48.10;33.70;;;;;;4897388;28;82798;-72
2022/07/05 09:44:38;;;;;;;35.92;4.57;;;46.90;33.90;;;;;;4898571;28;81938;-72
2022/07/05 09:47:10;;;;;;;5.88;3.95;;;47.50;34.80;;;;;;4900328;28;82551;-73
2022/07/05 09:49:42;;;;;;;5.53;4.13;;;48.50;32.20;;;;;;4895962;28;83175;-72
2022/07/05 09:52:08;;;;;;;3.47;3.17;;;47.50;33.50;;;;;;4899902;28;81992;-74
2022/07/05 09:54:33;;;;;;;5.05;4.50;;;45.20;35.20;;;;;;4900951;28;81831;-71
2022/07/05 09:56:59;;;;;;;4.15;3.33;;;44.60;37.30;;;;;;4896133;28;82584;-75
2022/07/05 09:59:25;;;;;;;4.57;4.20;;;45.80;34.40;;;;;;4899769;28;83236;-73
2022/07/05 10:01:51;;;;;;;5.18;4.25;;;47.00;33.60;;;;;;4900638;28;83533;-74
2022/07/05 10:04:17;;;;;;;5.82;5.03;;;46.70;34.40;;;;;;4899242;28;82286;-72
2022/07/05 10:06:44;;;;;;;5.47;3.42;;;43.70;36.10;;;;;;4900098;28;81963;-73
2022/07/05 10:09:10;;;;;;;4.80;4.18;;;40.90;39.10;;;;;;4900551;28;82204;-73
2022/07/05 10:11:42;;;;;;;4.65;3.88;;;42.10;38.90;;;;;;4899635;28;82724;-72
2022/07/05 10:14:18;;;;;;;4.63;3.67;;;42.00;37.70;;;;;;4894932;28;82049;-73
2022/07/05 10:16:56;;;;;;;3.28;2.45;;;40.10;38.90;;;;;;4900477;28;82844;-70
2022/07/05 10:19:24;;;;;;;2.97;2.30;;;37.80;41.30;;;;;;4891642;28;83076;-72
2022/07/05 10:21:51;;;;;;;2.65;2.45;;;33.90;48.90;;;;;;4896993;28;82039;-74
2022/07/05 10:24:18;;;;;;;4.32;2.28;;;34.30;47.90;;;;;;4895921;28;83202;-73
2022/07/05 10:26:46;;;;;;;2.92;2.35;;;33.40;45.50;;;;;;4896249;28;82090;-74
2022/07/05 10:29:12;;;;;;;;;;;32.60;49.40;;;;;;4891386;28;82128;-76
2022/07/05 10:31:38;;;;;;;3.13;1.58;;;33.10;48.70;;;;;;4898087;28;82353;-75
2022/07/05 10:34:07;;;;;;;2.67;1.20;;;33.10;47.60;;;;;;4894059;28;82421;-77
2022/07/05 10:36:34;;;;;;;2.90;1.70;;;32.40;47.50;;;;;;4897020;28;82395;-75
2022/07/05 10:39:01;;;;;;;1.90;1.23;;;31.20;50.10;;;;;;4895488;28;82339;-71
2022/07/05 10:41:29;;;;;;;2.03;1.30;;;30.30;53.00;;;;;;4897347;28;81937;-72
2022/07/05 10:43:55;;;;;;;2.08;1.30;;;29.60;52.90;;;;;;4900624;28;81872;-74
2022/07/05 10:46:34;;;;;;;2.65;1.15;;;28.60;54.30;;;;;;4893391;28;82215;-75
2022/07/05 10:49:20;;;;;;;3.90;1.10;;;28.20;55.70;;;;;;4892952;28;82623;-75
2022/07/05 10:51:46;;;;;;;2.53;1.13;;;28.40;54.20;;;;;;4898147;28;83927;-73
2022/07/05 10:54:12;;;;;;;3.58;1.10;;;28.40;57.70;;;;;;4897603;28;81875;-73
2022/07/05 10:56:39;;;;;;;4.10;1.20;;;29.20;52.40;;;;;;4897556;28;82042;-76
2022/07/05 10:59:12;;;;;;;5.10;1.17;;;29.30;56.00;;;;;;4893734;28;82105;-75
2022/07/05 11:01:41;;;;;;;2.53;1.08;;;29.30;54.50;;;;;;4893111;28;82856;-76
2022/07/05 11:04:18;;;;;;;3.63;1.10;;;29.60;53.70;;;;;;4893883;28;82002;-74
2022/07/05 11:06:49;;;;;;;4.85;1.13;;;30.00;53.20;;;;;;4895924;28;82424;-78
2022/07/05 11:09:20;;;;;;;2.05;1.33;;;30.50;52.90;;;;;;4893609;28;82302;-79
2022/07/05 11:12:00;;;;;;;1.77;0.95;;;30.80;54.20;;;;;;4893192;28;82001;-75
2022/07/05 11:14:26;;;;;;;3.00;1.13;;;30.10;52.20;;;;;;4900770;28;83304;-74
2022/07/05 11:17:16;;;;;;;2.30;1.00;;;29.10;53.50;;;;;;4899654;28;81899;-75
2022/07/05 11:20:05;;;;;;;5.53;1.00;;;29.40;53.90;;;;;;4898101;28;82118;-75
2022/07/05 11:22:32;;;;;;;4.68;0.93;;;28.90;57.30;;;;;;4893527;28;82959;-74
2022/07/05 11:25:00;;;;;;;3.20;0.95;;;28.10;57.00;;;;;;4902359;28;81964;-73
2022/07/05 11:27:26;;;;;;;6.13;1.35;;;28.40;57.20;;;;;;4894094;28;82146;-74
2022/07/05 11:29:53;;;;;;;6.03;1.08;;;28.20;55.00;;;;;;4892053;28;83068;-76
2022/07/05 11:32:21;;;;;;;3.30;1.27;;;28.30;55.10;;;;;;4901884;28;81370;-75
2022/07/05 11:34:52;;;;;;;3.97;0.73;;;28.50;54.50;;;;;;4895180;28;82008;-76
2022/07/05 11:37:32;;;;;;;3.25;1.27;;;27.40;56.80;;;;;;4893583;28;82409;-73
2022/07/05 11:40:06;;;;;;;2.92;1.13;;;26.20;59.20;;;;;;4893678;28;83159;-75
2022/07/05 11:42:34;;;;;;;1.35;0.75;;;26.50;62.90;;;;;;4897813;28;83727;-75
2022/07/05 11:45:01;;;;;;;2.50;1.40;;;27.20;61.10;;;;;;4897196;28;81865;-75
2022/07/05 11:47:27;;;;;;;2.42;1.38;;;27.50;56.80;;;;;;4902562;28;82296;-76
2022/07/05 11:50:02;;;;;;;2.92;1.13;;;27.30;57.30;;;;;;4897492;28;83703;-74
2022/07/05 11:52:32;;;;;;;3.03;1.02;;;27.60;56.80;;;;;;4895226;28;82076;-76
2022/07/05 11:55:00;;;;;;;2.33;0.88;;;27.80;58.60;;;;;;4893673;28;81979;-74
2022/07/05 11:57:26;;;;;;;2.17;1.00;;;27.70;57.30;;;;;;4890431;28;82006;-73
2022/07/05 11:59:52;;;;;;;3.78;1.15;;;27.90;55.00;;;;;;4896019;28;82732;-72
2022/07/05 12:02:18;;;;;;;1.98;1.10;;;28.10;53.20;;;;;;4891473;28;83867;-73
2022/07/05 12:04:48;;;;;;;2.30;0.90;;;28.10;52.30;;;;;;4892595;28;82857;-73
2022/07/05 12:07:25;;;;;;;5.10;0.95;;;28.30;51.80;;;;;;4887741;28;83693;-73
2022/07/05 12:12:43;;;;;;;1.48;0.70;;;28.60;49.20;;;;;;4890985;28;82035;-74
2022/07/05 12:15:14;;;;;;;1.95;0.63;;;28.90;47.50;;;;;;4883653;28;82558;-74
2022/07/05 12:17:43;;;;;;;2.28;0.82;;;28.80;47.70;;;;;;4901712;28;82825;-73
2022/07/05 12:20:13;;;;;;;3.65;0.82;;;28.40;47.80;;;;;;4898957;28;82212;-73
2022/07/05 12:22:41;;;;;;;2.58;0.75;;;28.40;53.00;;;;;;4897947;28;82060;-73
2022/07/05 12:25:13;;;;;;;2.40;0.95;;;28.30;51.20;;;;;;4898896;28;82171;-73
2022/07/05 12:27:40;;;;;;;2.83;0.90;;;28.10;51.40;;;;;;4893377;28;82585;-72
2022/07/05 12:30:09;;;;;;;3.53;0.73;;;28.30;48.80;;;;;;4895627;28;83434;-75
2022/07/05 12:33:03;;;;;;;2.42;0.75;;;28.00;50.70;;;;;;4895469;28;83872;-72
2022/07/05 12:35:36;;;;;;;2.80;1.23;;;27.80;48.90;;;;;;4900274;28;83865;-72
2022/07/05 12:38:29;;;;;;;1.95;0.90;;;28.00;52.90;;;;;;4895453;28;82675;-72
2022/07/05 12:40:58;;;;;;;1.48;0.55;;;27.80;50.10;;;;;;4895055;28;81854;-73
2022/07/05 12:43:24;;;;;;;5.18;0.70;;;27.80;50.20;;;;;;4902603;28;82006;-73
2022/07/05 12:46:07;;;;;;;1.65;0.57;;;27.80;50.50;;;;;;4902819;28;81979;-72
2022/07/05 12:48:35;;;;;;;2.22;0.57;;;28.00;48.20;;;;;;4903020;28;81706;-76
2022/07/05 12:51:02;;;;;;;2.58;0.70;;;27.90;45.00;;;;;;4903057;28;82042;-74
2022/07/05 12:59:03;;;;;;;1.40;0.50;;;27.60;48.90;;;;;;4903648;28;81940;-75
2022/07/05 13:01:37;;;;;;;1.45;0.65;;;27.80;48.20;;;;;;4896161;28;82177;-72
2022/07/05 13:04:03;;;;;;;1.13;0.60;;;27.90;41.20;;;;;;4900831;28;82660;-72
2022/07/05 13:06:54;;;;;;;2.28;0.82;;;27.70;43.60;;;;;;4900552;28;82457;-73
2022/07/05 13:09:32;;;;;;;1.20;0.57;;;27.70;44.20;;;;;;4898198;28;81956;-74
2022/07/05 13:12:15;;;;;;;1.90;0.45;;;27.70;43.20;;;;;;4895136;28;82143;-72
2022/07/05 13:14:46;;;;;;;2.90;0.55;;;27.70;42.40;;;;;;4899526;28;81796;-72
2022/07/05 13:17:15;;;;;;;4.80;0.52;;;27.20;44.70;;;;;;4901113;28;82081;-73
2022/07/05 13:19:43;;;;;;;2.67;0.82;;;27.10;43.80;;;;;;4901248;28;82128;-72
2022/07/05 13:22:09;;;;;;;2.05;0.50;;;27.20;44.70;;;;;;4901379;28;83343;-72
2022/07/05 13:24:36;;;;;;;1.90;0.40;;;27.30;44.00;;;;;;4899762;28;82719;-74
2022/07/05 13:27:02;;;;;;;1.05;0.40;;;27.40;44.30;;;;;;4896643;28;81865;-72
2022/07/05 13:29:28;;;;;;;1.60;0.57;;;27.20;44.80;;;;;;4902198;28;82016;-75
2022/07/05 13:31:54;;;;;;;2.53;0.55;;;26.70;45.20;;;;;;4900625;28;82085;-72
2022/07/05 13:34:23;;;;;;;5.18;0.47;;;26.70;51.20;;;;;;4894860;28;82356;-73
2022/07/05 13:36:49;;;;;;;;;;;26.70;50.20;;;;;;4901967;28;82224;-72
2022/07/05 13:39:15;;;;;;;1.63;0.68;;;26.90;50.70;;;;;;4901747;28;81593;-73
2022/07/05 13:41:40;;;;;;;1.92;0.90;;;27.20;50.20;;;;;;4896472;28;83222;-73
2022/07/05 13:44:06;;;;;;;1.17;0.60;;;27.00;47.80;;;;;;4898075;28;83211;-72
2022/07/05 13:46:32;;;;;;;2.30;0.70;;;27.10;46.30;;;;;;4898289;28;83081;-73
2022/07/05 13:48:58;;;;;;;2.28;0.52;;;26.90;45.90;;;;;;4904344;28;81887;-75
2022/07/05 13:51:23;;;;;;;3.92;0.60;;;26.50;46.90;;;;;;4900956;28;82132;-74
2022/07/05 13:53:49;;;;;;;2.72;0.50;;;26.40;47.90;;;;;;4895502;28;82890;-74
2022/07/05 13:56:15;;;;;;;1.40;0.40;;;26.50;50.30;;;;;;4899406;28;82355;-72
2022/07/05 13:58:41;;;;;;;2.05;0.70;;;26.70;47.70;;;;;;4894367;28;83300;-68
2022/07/05 14:01:06;;;;;;;1.33;0.40;;;26.80;48.20;;;;;;4896891;28;82999;-67
2022/07/05 14:03:32;;;;;;;1.60;0.45;;;26.80;47.40;;;;;;4901954;28;82336;-67
2022/07/05 14:05:58;;;;;;;2.08;0.95;;;26.90;47.20;;;;;;4900383;28;82194;-67
2022/07/05 14:08:23;;;;;;;1.45;0.40;;;26.90;49.00;;;;;;4897151;28;83469;-68
2022/07/05 14:10:54;;;;;;;1.30;0.32;;;26.90;49.70;;;;;;4896807;28;83041;-68
2022/07/05 14:13:25;;;;;;;1.45;0.55;;;27.00;47.20;;;;;;4900299;28;82082;-68
2022/07/05 14:15:51;;;;;;;2.00;0.40;;;26.90;47.70;;;;;;4895927;28;82449;-68
2022/07/05 14:18:19;;;;;;;1.63;0.47;;;26.70;49.50;;;;;;4900796;28;81883;-67
2022/07/05 14:20:46;;;;;;;1.48;0.55;;;26.70;50.60;;;;;;4900844;28;83614;-68
2022/07/05 14:23:16;;;;;;;2.42;0.63;;;26.80;47.80;;;;;;4895180;28;82399;-68
2022/07/05 14:25:42;;;;;;;2.40;1.02;;;26.90;46.30;;;;;;4896882;28;82146;-68
2022/07/05 14:28:09;;;;;;;5.25;1.33;;;26.80;47.10;;;;;;4899882;28;81846;-68
2022/07/05 14:30:35;;;;;;;3.20;1.17;;;26.70;49.60;;;;;;4899988;28;81981;-68
2022/07/05 14:33:01;;;;;;;3.00;1.30;;;26.70;46.20;;;;;;4901226;28;83810;-68
2022/07/05 14:35:28;;;;;;;3.72;1.00;;;26.60;49.80;;;;;;4897366;28;82706;-67
2022/07/05 14:37:53;;;;;;;2.45;0.70;;;26.60;49.90;;;;;;4895549;28;83256;-67
2022/07/05 14:40:19;;;;;;;2.08;0.63;;;26.70;44.80;;;;;;4892524;28;83244;-69
2022/07/05 14:42:45;;;;;;;4.68;0.75;;;26.60;44.40;;;;;;4895952;28;82954;-67
2022/07/05 14:45:11;;;;;;;1.35;0.63;;;26.60;46.60;;;;;;4894341;28;82392;-68
2022/07/05 14:47:37;;;;;;;2.72;0.60;;;26.50;46.60;;;;;;4901546;28;82864;-67
2022/07/05 14:50:03;;;;;;;3.17;0.43;;;26.60;46.90;;;;;;4905591;28;82460;-68
2022/07/05 14:52:30;;;;;;;2.33;0.68;;;26.60;45.20;;;;;;4894193;28;82186;-68
2022/07/05 14:54:56;;;;;;;1.10;0.50;;;26.60;45.60;;;;;;4891805;28;82296;-69
2022/07/05 14:57:22;;;;;;;2.42;0.50;;;26.50;47.20;;;;;;4895558;28;82480;-68
2022/07/05 14:59:48;;;;;;;4.30;0.38;;;26.50;47.90;;;;;;4893072;28;83101;-68
2022/07/05 15:02:14;;;;;;;2.40;0.90;;;26.50;44.30;;;;;;4891675;28;83277;-67
2022/07/05 15:04:40;;;;;;;1.98;0.43;;;26.50;45.30;;;;;;4890901;28;82375;-68
2022/07/05 15:07:06;;;;;;;1.77;0.50;;;26.50;46.60;;;;;;4894317;28;81881;-68
2022/07/05 15:09:32;;;;;;;3.58;0.85;;;26.60;46.00;;;;;;4891258;28;82316;-68
2022/07/05 15:11:58;;;;;;;1.30;0.40;;;26.50;46.60;;;;;;4893668;28;82065;-68
2022/07/05 15:14:23;;;;;;;3.72;0.70;;;26.50;46.30;;;;;;4893458;28;82414;-69
2022/07/05 15:16:49;;;;;;;2.45;0.43;;;26.50;45.90;;;;;;4887185;28;82032;-68
2022/07/05 15:19:15;;;;;;;1.45;0.50;;;26.40;46.70;;;;;;4895871;28;82452;-67
2022/07/05 15:21:41;;;;;;;1.05;0.77;;;26.30;46.60;;;;;;4891834;28;82804;-69
2022/07/05 15:24:07;;;;;;;1.40;0.40;;;26.30;46.90;;;;;;4892809;28;83329;-68
2022/07/05 15:26:33;;;;;;;2.65;0.50;;;26.40;45.10;;;;;;4893029;28;81974;-68
2022/07/05 15:29:04;;;;;;;1.95;0.52;;;26.30;46.80;;;;;;4898192;28;82485;-69
2022/07/05 15:31:34;;;;;;;1.10;0.35;;;26.30;46.00;;;;;;4892833;28;82521;-68
2022/07/05 15:34:01;;;;;;;1.90;0.38;;;26.40;46.30;;;;;;4887749;28;81997;-67
2022/07/05 15:36:27;;;;;;;1.90;0.50;;;26.30;47.20;;;;;;4894327;28;82273;-67
2022/07/05 15:38:54;;;;;;;3.38;0.40;;;26.30;47.90;;;;;;4897488;28;83176;-67
2022/07/05 15:41:20;;;;;;;1.40;0.45;;;26.30;47.70;;;;;;4891462;28;81920;-67
2022/07/05 15:43:47;;;;;;;1.75;0.35;;;26.20;48.80;;;;;;4896614;28;81891;-68
2022/07/05 15:46:13;;;;;;;2.10;0.50;;;26.30;47.70;;;;;;4895650;28;82651;-69
2022/07/05 15:48:38;;;;;;;1.67;0.55;;;26.40;48.30;;;;;;4897881;28;82902;-68